createdAt,value
2023-01-31T00:01:17.648Z,14.52
2023-01-31T00:03:45.322Z,8.25
2023-01-31T00:06:28.976Z,8.25
2023-01-31T00:08:56.663Z,12.00
2023-01-31T00:11:26.083Z,5.28
2023-01-31T00:13:53.968Z,6.30
2023-01-31T00:16:22.054Z,7.28
2023-01-31T00:18:49.398Z,6.32
2023-01-31T00:21:20.927Z,8.20
2023-01-31T00:23:48.907Z,3.90
2023-01-31T00:26:17.359Z,9.18
2023-01-31T00:28:45.218Z,7.45
2023-01-31T00:31:13.297Z,9.25
2023-01-31T00:33:41.782Z,5.90
2023-01-31T00:36:10.665Z,9.38
2023-01-31T00:38:38.379Z,7.57
2023-01-31T00:41:06.487Z,6.55
2023-01-31T00:43:33.656Z,8.80
2023-01-31T00:46:00.872Z,4.72
2023-01-31T00:48:28.715Z,12.00
2023-01-31T00:50:55.921Z,9.23
2023-01-31T00:53:26.033Z,7.65
2023-01-31T00:55:54.489Z,6.32
2023-01-31T00:58:22.096Z,5.57
2023-01-31T01:00:49.378Z,10.38
2023-01-31T01:03:16.672Z,6.70
2023-01-31T01:05:43.839Z,5.68
2023-01-31T01:08:10.980Z,11.13
2023-01-31T01:10:38.628Z,6.28
2023-01-31T01:13:05.844Z,5.20
2023-01-31T01:15:34.031Z,4.60
2023-01-31T01:18:01.627Z,7.03
2023-01-31T01:20:28.780Z,6.43
2023-01-31T01:22:55.911Z,5.53
2023-01-31T01:25:23.079Z,6.28
2023-01-31T01:27:50.240Z,5.05
2023-01-31T01:30:17.548Z,8.75
2023-01-31T01:32:44.962Z,10.50
2023-01-31T01:35:12.075Z,8.82
2023-01-31T01:37:39.545Z,5.35
2023-01-31T01:40:07.166Z,8.82
2023-01-31T01:42:36.318Z,7.00
2023-01-31T01:45:05.345Z,7.32
2023-01-31T01:47:50.111Z,8.07
2023-01-31T01:50:20.549Z,5.75
2023-01-31T01:52:50.468Z,6.18
2023-01-31T01:55:20.518Z,5.88
2023-01-31T01:57:50.386Z,9.73
2023-01-31T02:00:22.749Z,12.70
2023-01-31T02:02:50.949Z,7.40
2023-01-31T02:05:21.113Z,6.13
2023-01-31T02:07:48.497Z,8.00
2023-01-31T02:10:22.513Z,9.93
2023-01-31T02:12:49.740Z,8.88
2023-01-31T02:15:17.055Z,6.80
2023-01-31T02:17:44.301Z,7.03
2023-01-31T02:20:27.760Z,6.43
2023-01-31T02:23:15.841Z,13.85
2023-01-31T02:25:43.028Z,4.35
2023-01-31T02:28:28.020Z,9.15
2023-01-31T02:30:55.196Z,9.13
2023-01-31T02:33:27.177Z,6.85
2023-01-31T02:36:13.280Z,8.35
2023-01-31T02:38:49.560Z,2.45
2023-01-31T02:41:16.770Z,5.25
2023-01-31T02:44:03.727Z,9.25
2023-01-31T02:46:43.311Z,6.20
2023-01-31T02:49:36.913Z,6.75
2023-01-31T02:52:16.237Z,7.65
2023-01-31T02:55:25.738Z,6.28
2023-01-31T02:57:54.126Z,5.50
2023-01-31T03:00:21.925Z,7.13
2023-01-31T03:02:49.191Z,6.65
2023-01-31T03:05:18.212Z,17.92
2023-01-31T03:07:49.124Z,5.50
2023-01-31T03:10:25.916Z,6.93
2023-01-31T03:13:03.244Z,10.13
2023-01-31T03:16:21.475Z,6.95
2023-01-31T03:18:57.808Z,7.78
2023-01-31T03:21:26.502Z,4.72
2023-01-31T03:23:55.683Z,5.70
2023-01-31T03:26:23.592Z,7.97
2023-01-31T03:28:55.500Z,6.53
2023-01-31T03:31:26.294Z,6.68
2023-01-31T03:33:56.042Z,7.93
2023-01-31T03:36:27.882Z,7.75
2023-01-31T03:39:05.636Z,7.05
2023-01-31T03:41:43.364Z,5.28
2023-01-31T03:44:14.671Z,6.22
2023-01-31T03:46:44.852Z,7.63
2023-01-31T03:49:14.113Z,6.20
2023-01-31T03:51:45.282Z,7.63
2023-01-31T03:54:15.061Z,7.90
2023-01-31T03:56:44.956Z,8.27
2023-01-31T03:59:15.301Z,5.40
2023-01-31T04:01:45.737Z,13.93
2023-01-31T04:04:15.039Z,6.20
2023-01-31T04:06:42.216Z,8.57
2023-01-31T04:09:09.379Z,9.35
2023-01-31T04:11:38.613Z,11.25
2023-01-31T04:14:06.125Z,9.13
2023-01-31T04:16:33.551Z,10.93
2023-01-31T04:19:00.883Z,7.97
2023-01-31T04:21:28.013Z,6.07
2023-01-31T04:23:55.188Z,6.80
2023-01-31T04:26:22.430Z,5.85
2023-01-31T04:28:49.944Z,7.28
2023-01-31T04:31:17.190Z,8.57
2023-01-31T04:33:44.367Z,4.85
2023-01-31T04:36:11.605Z,7.68
2023-01-31T04:38:38.885Z,3.92
2023-01-31T04:41:06.205Z,6.18
2023-01-31T04:43:33.410Z,5.60
2023-01-31T04:46:00.627Z,4.78
2023-01-31T04:48:29.065Z,7.90
2023-01-31T04:50:57.129Z,9.75
2023-01-31T04:53:24.295Z,10.90
2023-01-31T04:55:55.120Z,20.83
2023-01-31T04:58:22.585Z,12.85
2023-01-31T05:00:49.858Z,13.23
2023-01-31T05:03:17.166Z,7.88
2023-01-31T05:05:44.392Z,10.95
2023-01-31T05:08:11.567Z,8.40
2023-01-31T05:10:38.887Z,8.60
2023-01-31T05:13:06.190Z,11.38
2023-01-31T05:15:33.374Z,18.83
2023-01-31T05:18:03.538Z,13.05
2023-01-31T05:20:36.568Z,11.63
2023-01-31T05:23:04.050Z,19.63
2023-01-31T05:25:31.634Z,9.55
2023-01-31T05:27:59.060Z,16.00
2023-01-31T05:30:26.559Z,12.50
2023-01-31T05:32:54.166Z,8.35
2023-01-31T05:35:21.820Z,7.00
2023-01-31T05:37:49.179Z,8.05
2023-01-31T05:40:17.472Z,5.75
2023-01-31T05:42:44.781Z,13.73
2023-01-31T05:45:13.398Z,10.60
2023-01-31T05:47:40.567Z,9.20
2023-01-31T05:50:08.030Z,5.65
2023-01-31T05:52:35.282Z,7.43
2023-01-31T05:55:02.833Z,5.13
2023-01-31T05:57:29.981Z,11.38
2023-01-31T05:59:57.087Z,17.98
2023-01-31T06:02:24.408Z,10.88
2023-01-31T06:04:51.665Z,7.75
2023-01-31T06:07:18.944Z,8.48
2023-01-31T06:09:46.460Z,9.43
2023-01-31T06:12:14.963Z,9.00
2023-01-31T06:14:42.323Z,9.55
2023-01-31T06:17:09.690Z,14.15
2023-01-31T06:19:37.196Z,20.58
2023-01-31T06:22:05.236Z,19.67
2023-01-31T06:24:32.357Z,23.15
2023-01-31T06:26:59.533Z,30.83
2023-01-31T06:29:26.684Z,12.80
2023-01-31T06:31:53.807Z,8.13
2023-01-31T06:34:21.113Z,13.98
2023-01-31T06:36:48.267Z,11.60
2023-01-31T06:39:15.787Z,16.40
2023-01-31T06:41:42.995Z,15.60
2023-01-31T06:44:10.214Z,9.93
2023-01-31T06:46:37.468Z,16.05
2023-01-31T06:49:04.716Z,10.85
2023-01-31T06:51:31.926Z,12.10
2023-01-31T06:53:59.364Z,15.05
2023-01-31T06:56:26.598Z,9.98
2023-01-31T06:58:53.750Z,14.25
2023-01-31T07:01:22.649Z,15.00
2023-01-31T07:03:49.994Z,14.88
2023-01-31T07:06:19.870Z,13.48
2023-01-31T07:08:47.343Z,13.95
2023-01-31T07:11:14.571Z,12.15
2023-01-31T07:13:41.753Z,12.13
2023-01-31T07:16:09.013Z,10.02
2023-01-31T07:18:36.161Z,11.68
2023-01-31T07:21:03.358Z,9.43
2023-01-31T07:23:31.061Z,10.15
2023-01-31T07:25:58.380Z,10.15
2023-01-31T07:28:25.578Z,13.57
2023-01-31T07:30:52.843Z,10.02
2023-01-31T07:33:20.263Z,7.38
2023-01-31T07:35:47.484Z,8.63
2023-01-31T07:38:14.977Z,8.10
2023-01-31T07:40:42.133Z,14.95
2023-01-31T07:43:09.280Z,7.15
2023-01-31T07:45:36.841Z,15.55
2023-01-31T07:48:04.183Z,15.57
2023-01-31T07:50:31.353Z,12.80
2023-01-31T07:52:59.139Z,9.52
2023-01-31T07:55:27.153Z,17.23
2023-01-31T07:57:54.362Z,21.58
2023-01-31T08:00:48.425Z,13.75
2023-01-31T08:03:33.689Z,14.55
2023-01-31T08:06:02.110Z,11.65
2023-01-31T08:08:29.643Z,6.93
2023-01-31T08:10:56.886Z,13.40
2023-01-31T08:13:26.738Z,24.45
2023-01-31T08:15:56.728Z,28.98
2023-01-31T08:18:24.021Z,15.48
2023-01-31T08:20:51.306Z,12.52
2023-01-31T08:23:18.518Z,17.00
2023-01-31T08:25:46.416Z,19.92
2023-01-31T08:28:13.875Z,10.13
2023-01-31T08:30:42.449Z,10.60
2023-01-31T08:33:10.139Z,9.57
2023-01-31T08:35:37.348Z,8.27
2023-01-31T08:38:16.097Z,7.82
2023-01-31T08:40:43.897Z,9.43
2023-01-31T08:43:11.067Z,12.30
2023-01-31T08:45:38.643Z,6.30
2023-01-31T08:48:06.049Z,23.30
2023-01-31T08:50:33.610Z,11.15
2023-01-31T08:53:02.118Z,7.65
2023-01-31T08:55:30.302Z,12.70
2023-01-31T08:58:00.133Z,8.02
2023-01-31T09:00:27.620Z,6.13
2023-01-31T09:02:54.959Z,20.55
2023-01-31T09:05:22.490Z,9.55
2023-01-31T09:07:49.821Z,8.23
2023-01-31T09:10:17.625Z,8.35
2023-01-31T09:12:44.906Z,8.13
2023-01-31T09:15:12.389Z,7.50
2023-01-31T09:17:40.477Z,13.30
2023-01-31T09:20:10.094Z,11.50
2023-01-31T09:22:37.557Z,7.32
2023-01-31T09:25:04.942Z,18.98
2023-01-31T09:27:32.262Z,6.65
2023-01-31T09:29:59.385Z,16.88
2023-01-31T09:32:26.518Z,12.07
2023-01-31T09:34:53.691Z,7.00
2023-01-31T09:37:20.855Z,8.75
2023-01-31T09:39:47.990Z,8.57
2023-01-31T09:42:24.348Z,13.95
2023-01-31T09:45:01.164Z,10.82
2023-01-31T09:47:30.996Z,8.02
2023-01-31T09:50:05.214Z,7.85
2023-01-31T09:52:33.212Z,7.95
2023-01-31T09:55:00.927Z,11.35
2023-01-31T09:57:51.001Z,12.23
2023-01-31T10:00:36.928Z,12.02
2023-01-31T10:03:19.564Z,8.45
2023-01-31T10:05:50.661Z,14.13
2023-01-31T10:08:29.566Z,7.90
2023-01-31T10:10:59.778Z,12.48
2023-01-31T10:13:35.357Z,8.98
2023-01-31T10:16:14.805Z,8.60
2023-01-31T10:18:45.546Z,7.40
2023-01-31T10:21:30.343Z,9.18
2023-01-31T10:24:13.310Z,8.48
2023-01-31T10:26:42.844Z,6.50
2023-01-31T10:29:13.740Z,12.50
2023-01-31T10:31:51.453Z,8.48
2023-01-31T10:34:21.717Z,14.45
2023-01-31T10:36:56.997Z,8.93
2023-01-31T10:39:39.535Z,12.20
2023-01-31T10:42:09.917Z,10.50
2023-01-31T10:44:43.235Z,9.88
2023-01-31T10:47:15.017Z,9.88
2023-01-31T10:49:45.210Z,16.77
2023-01-31T10:52:15.319Z,12.10
2023-01-31T10:54:47.351Z,13.82
2023-01-31T10:57:14.732Z,10.23
2023-01-31T10:59:43.947Z,14.85
2023-01-31T11:02:19.247Z,11.52
2023-01-31T11:04:46.477Z,16.15
2023-01-31T11:07:13.745Z,9.60
2023-01-31T11:09:42.365Z,14.77
2023-01-31T11:12:10.087Z,14.18
2023-01-31T11:14:37.259Z,16.00
2023-01-31T11:17:15.400Z,12.98
2023-01-31T11:19:42.614Z,7.20
2023-01-31T11:22:10.368Z,13.48
2023-01-31T11:24:41.306Z,8.88
2023-01-31T11:27:10.728Z,9.32
2023-01-31T11:29:45.363Z,9.38
2023-01-31T11:32:24.685Z,9.88
2023-01-31T11:35:22.247Z,13.90
2023-01-31T11:37:54.240Z,8.48
2023-01-31T11:40:40.390Z,21.52
2023-01-31T11:43:22.822Z,23.48
2023-01-31T11:45:58.552Z,10.20
2023-01-31T11:48:28.024Z,14.50
2023-01-31T11:50:59.687Z,13.88
2023-01-31T11:53:28.714Z,14.25
2023-01-31T11:55:57.003Z,10.85
2023-01-31T11:58:26.142Z,15.38
2023-01-31T12:01:02.105Z,16.08
2023-01-31T12:03:30.233Z,16.00
2023-01-31T12:06:01.838Z,17.42
2023-01-31T12:08:30.654Z,12.48
2023-01-31T12:10:58.247Z,11.05
2023-01-31T12:13:25.991Z,14.68
2023-01-31T12:15:56.098Z,10.43
2023-01-31T12:18:49.300Z,15.38
2023-01-31T12:21:17.646Z,14.57
2023-01-31T12:23:51.966Z,13.63
2023-01-31T12:26:40.643Z,9.93
2023-01-31T12:29:11.945Z,15.45
2023-01-31T12:31:52.174Z,11.50
2023-01-31T12:34:22.588Z,9.88
2023-01-31T12:36:59.117Z,9.02
2023-01-31T12:40:22.855Z,12.13
2023-01-31T12:42:56.194Z,5.38
2023-01-31T12:45:30.619Z,5.88
2023-01-31T12:48:16.193Z,7.78
2023-01-31T12:50:49.454Z,5.22
2023-01-31T12:53:16.642Z,12.50
2023-01-31T12:55:43.905Z,5.63
2023-01-31T12:58:20.359Z,5.10
2023-01-31T13:00:57.182Z,3.47
2023-01-31T13:03:30.657Z,3.55
2023-01-31T13:08:28.024Z,4.80
2023-01-31T13:10:59.457Z,4.68
2023-01-31T13:13:29.100Z,3.45
2023-01-31T13:16:00.863Z,3.65
2023-01-31T13:18:28.261Z,3.55
2023-01-31T13:20:57.887Z,2.83
2023-01-31T13:23:37.757Z,4.38
2023-01-31T13:26:26.667Z,4.57
2023-01-31T13:29:12.789Z,3.95
2023-01-31T13:31:46.291Z,4.40
2023-01-31T13:36:52.144Z,4.43
2023-01-31T13:39:28.618Z,4.25
2023-01-31T13:41:55.912Z,4.45
2023-01-31T13:44:23.204Z,5.25
2023-01-31T13:47:13.262Z,2.83
2023-01-31T13:49:44.700Z,3.22
2023-01-31T13:52:18.593Z,6.10
2023-01-31T13:55:06.188Z,4.63
2023-01-31T13:57:46.678Z,3.63
2023-01-31T14:00:23.433Z,1.55
2023-01-31T14:03:03.329Z,1.35
2023-01-31T14:05:49.051Z,2.22
2023-01-31T14:08:35.382Z,2.13
2023-01-31T14:11:14.836Z,2.13
2023-01-31T14:13:44.579Z,1.60
2023-01-31T14:16:30.919Z,4.13
2023-01-31T14:18:58.574Z,1.63
2023-01-31T14:21:32.326Z,2.75
2023-01-31T14:24:00.956Z,2.55
2023-01-31T14:26:43.741Z,3.28
2023-01-31T14:29:10.924Z,2.08
2023-01-31T14:31:38.208Z,1.67
2023-01-31T14:34:06.815Z,1.23
2023-01-31T14:36:34.012Z,1.35
2023-01-31T14:39:01.147Z,1.65
2023-01-31T14:41:57.913Z,4.30
2023-01-31T14:44:41.918Z,2.60
2023-01-31T14:47:25.782Z,1.75
2023-01-31T14:49:56.580Z,4.55
2023-01-31T14:52:33.260Z,6.88
2023-01-31T14:55:08.937Z,9.55
2023-01-31T14:57:41.643Z,4.30
2023-01-31T15:00:15.131Z,2.92
2023-01-31T15:02:46.333Z,2.40
2023-01-31T15:05:15.396Z,2.38
2023-01-31T15:08:07.298Z,3.40
2023-01-31T15:10:53.323Z,2.58
2023-01-31T15:13:39.363Z,1.63
2023-01-31T15:16:18.716Z,2.22
2023-01-31T15:19:06.228Z,2.65
2023-01-31T15:21:35.417Z,4.93
2023-01-31T15:24:03.317Z,2.35
2023-01-31T15:26:33.021Z,2.88
2023-01-31T15:29:01.156Z,7.20
2023-01-31T15:31:41.289Z,1.90
2023-01-31T15:34:13.838Z,2.88
2023-01-31T15:36:46.503Z,4.95
2023-01-31T15:39:20.108Z,4.28
2023-01-31T15:41:47.400Z,4.53
2023-01-31T15:44:19.398Z,2.30
2023-01-31T15:46:48.082Z,3.30
2023-01-31T15:49:38.112Z,2.00
2023-01-31T15:52:16.635Z,1.33
2023-01-31T15:54:57.688Z,2.08
2023-01-31T15:57:27.123Z,2.40
2023-01-31T15:59:54.848Z,1.70
2023-01-31T16:02:26.074Z,1.80
2023-01-31T16:04:53.433Z,2.40
2023-01-31T16:07:21.964Z,1.35
2023-01-31T16:09:52.263Z,1.25
2023-01-31T16:12:19.706Z,0.70
2023-01-31T16:14:48.507Z,0.93
2023-01-31T16:17:16.448Z,8.15
2023-01-31T16:19:44.764Z,0.95
2023-01-31T16:22:29.039Z,1.08
2023-01-31T16:24:57.929Z,0.70
2023-01-31T16:27:25.650Z,0.77
2023-01-31T16:29:55.802Z,0.85
2023-01-31T16:32:29.053Z,0.40
2023-01-31T16:35:07.219Z,0.40
2023-01-31T16:37:38.797Z,0.43
2023-01-31T16:40:09.341Z,1.55
2023-01-31T16:42:38.793Z,3.25
2023-01-31T16:45:25.489Z,2.05
2023-01-31T16:47:52.711Z,1.45
2023-01-31T16:50:24.740Z,0.60
2023-01-31T16:53:18.136Z,0.70
2023-01-31T16:55:45.954Z,3.67
2023-01-31T16:58:33.249Z,0.50
2023-01-31T17:01:33.206Z,2.25
2023-01-31T17:04:20.918Z,1.42
2023-01-31T17:06:52.881Z,0.50
2023-01-31T17:09:22.296Z,1.20
2023-01-31T17:11:49.533Z,0.68
2023-01-31T17:14:16.761Z,1.48
2023-01-31T17:16:47.029Z,0.75
2023-01-31T17:19:14.829Z,1.75
2023-01-31T17:21:43.152Z,1.00
2023-01-31T17:24:14.607Z,0.45
2023-01-31T17:26:41.875Z,1.17
2023-01-31T17:29:09.078Z,0.70
2023-01-31T17:31:36.765Z,0.50
2023-01-31T17:34:04.277Z,0.95
2023-01-31T17:36:31.648Z,1.20
2023-01-31T17:38:58.807Z,0.50
2023-01-31T17:41:26.247Z,0.60
2023-01-31T17:43:53.584Z,1.27
2023-01-31T17:46:20.903Z,0.50
2023-01-31T17:48:48.141Z,0.40
2023-01-31T17:51:15.392Z,1.23
2023-01-31T17:53:49.894Z,0.60
2023-01-31T17:56:18.292Z,0.40
2023-01-31T17:58:45.545Z,0.60
2023-01-31T18:01:14.293Z,0.68
2023-01-31T18:03:41.895Z,1.65
2023-01-31T18:06:09.626Z,0.75
2023-01-31T18:08:36.979Z,0.80
2023-01-31T18:11:22.552Z,0.47
2023-01-31T18:13:49.749Z,1.92
2023-01-31T18:16:18.550Z,1.17
2023-01-31T18:18:45.782Z,0.80
2023-01-31T18:21:13.941Z,0.60
2023-01-31T18:23:41.406Z,0.50
2023-01-31T18:26:09.376Z,0.70
2023-01-31T18:28:36.924Z,0.73
2023-01-31T18:31:05.309Z,1.30
2023-01-31T18:33:33.024Z,0.98
2023-01-31T18:36:01.221Z,1.55
2023-01-31T18:38:29.387Z,1.20
2023-01-31T18:40:56.927Z,1.92
2023-01-31T18:43:24.434Z,1.60
2023-01-31T18:45:51.574Z,1.77
2023-01-31T18:48:18.932Z,4.15
2023-01-31T18:50:46.254Z,3.03
2023-01-31T18:53:13.584Z,2.33
2023-01-31T18:55:40.755Z,1.77
2023-01-31T18:58:08.018Z,1.15
2023-01-31T19:00:35.308Z,1.50
2023-01-31T19:03:02.617Z,1.63
2023-01-31T19:05:29.849Z,1.30
2023-01-31T19:07:57.068Z,2.17
2023-01-31T19:10:24.245Z,1.33
2023-01-31T19:12:51.538Z,1.52
2023-01-31T19:15:18.826Z,1.92
2023-01-31T19:17:46.140Z,2.08
2023-01-31T19:20:13.508Z,2.63
2023-01-31T19:22:40.690Z,3.20
2023-01-31T19:25:09.942Z,1.80
2023-01-31T19:27:37.260Z,1.48
2023-01-31T19:30:04.640Z,2.78
2023-01-31T19:32:31.812Z,1.45
2023-01-31T19:34:58.945Z,1.40
2023-01-31T19:37:26.124Z,1.63
2023-01-31T19:39:53.299Z,1.70
2023-01-31T19:42:21.577Z,1.60
2023-01-31T19:44:48.878Z,4.80
2023-01-31T19:47:16.144Z,1.52
2023-01-31T19:49:43.390Z,5.85
2023-01-31T19:52:10.630Z,1.33
2023-01-31T19:54:38.620Z,1.58
2023-01-31T19:57:05.967Z,2.40
2023-01-31T19:59:33.631Z,1.83
2023-01-31T20:02:00.987Z,3.70
2023-01-31T20:04:30.893Z,0.95
2023-01-31T20:06:58.159Z,1.58
2023-01-31T20:09:25.405Z,2.00
2023-01-31T20:11:54.073Z,1.63
2023-01-31T20:14:21.374Z,1.92
2023-01-31T20:16:48.798Z,2.65
2023-01-31T20:19:16.130Z,1.30
2023-01-31T20:21:43.330Z,2.63
2023-01-31T20:24:11.372Z,2.25
2023-01-31T20:26:38.663Z,1.77
2023-01-31T20:29:06.116Z,1.98
2023-01-31T20:31:33.303Z,1.75
2023-01-31T20:34:00.612Z,2.75
2023-01-31T20:36:27.916Z,3.72
2023-01-31T20:38:55.083Z,1.58
2023-01-31T20:41:22.854Z,2.55
2023-01-31T20:43:50.697Z,3.33
2023-01-31T20:46:19.496Z,3.42
2023-01-31T20:48:46.960Z,2.38
2023-01-31T20:51:14.232Z,1.55
2023-01-31T20:53:41.574Z,3.03
2023-01-31T20:56:10.292Z,1.85
2023-01-31T20:58:38.979Z,2.38
2023-01-31T21:01:07.040Z,2.15
2023-01-31T21:03:35.077Z,2.53
2023-01-31T21:06:02.755Z,2.35
2023-01-31T21:08:31.681Z,2.88
2023-01-31T21:10:59.623Z,1.05
2023-01-31T21:13:31.542Z,6.20
2023-01-31T21:15:59.543Z,3.75
2023-01-31T21:18:28.260Z,2.67
2023-01-31T21:20:55.618Z,3.28
2023-01-31T21:23:22.949Z,2.97
2023-01-31T21:25:50.165Z,2.75
2023-01-31T21:28:17.420Z,2.65
2023-01-31T21:30:44.856Z,3.35
2023-01-31T21:33:12.254Z,4.85
2023-01-31T21:35:39.433Z,5.45
2023-01-31T21:38:06.844Z,2.17
2023-01-31T21:40:34.190Z,4.03
2023-01-31T21:43:01.468Z,1.40
2023-01-31T21:45:40.567Z,1.48
2023-01-31T21:48:27.158Z,1.40
2023-01-31T21:50:54.569Z,4.53
2023-01-31T21:53:22.153Z,1.90
2023-01-31T21:55:49.411Z,3.85
2023-01-31T21:58:16.854Z,1.60
2023-01-31T22:00:44.288Z,1.55
2023-01-31T22:03:11.636Z,1.27
2023-01-31T22:05:38.870Z,4.28
2023-01-31T22:08:06.348Z,1.65
2023-01-31T22:10:33.657Z,2.50
2023-01-31T22:13:00.786Z,2.85
2023-01-31T22:15:28.137Z,3.22
2023-01-31T22:17:55.372Z,4.80
2023-01-31T22:20:23.059Z,2.35
2023-01-31T22:22:50.774Z,4.05
2023-01-31T22:25:18.141Z,1.50
2023-01-31T22:27:45.386Z,3.95
2023-01-31T22:30:16.899Z,4.95
2023-01-31T22:32:44.350Z,1.52
2023-01-31T22:35:11.743Z,6.25
2023-01-31T22:37:41.166Z,7.10
2023-01-31T22:40:08.468Z,7.05
2023-01-31T22:42:35.673Z,5.15
2023-01-31T22:45:02.986Z,9.88
2023-01-31T22:47:30.168Z,5.35
2023-01-31T22:49:57.502Z,7.80
2023-01-31T22:52:24.747Z,5.75
2023-01-31T22:54:51.888Z,7.07
2023-01-31T22:57:19.112Z,4.45
2023-01-31T22:59:46.308Z,4.95
2023-01-31T23:02:13.626Z,3.00
2023-01-31T23:04:40.962Z,5.25
2023-01-31T23:07:10.630Z,3.45
2023-01-31T23:09:38.089Z,6.15
2023-01-31T23:12:05.721Z,5.78
2023-01-31T23:14:32.935Z,3.22
2023-01-31T23:17:19.300Z,7.95
2023-01-31T23:19:46.593Z,4.65
2023-01-31T23:22:15.411Z,3.95
2023-01-31T23:24:42.891Z,8.05
2023-01-31T23:27:10.359Z,6.50
2023-01-31T23:29:37.603Z,4.32
2023-01-31T23:32:05.165Z,5.68
2023-01-31T23:34:32.567Z,5.60
2023-01-31T23:37:00.012Z,5.53
2023-01-31T23:39:27.457Z,3.97
2023-01-31T23:41:54.964Z,4.55
2023-01-31T23:44:22.285Z,2.70
2023-01-31T23:46:50.115Z,2.05
2023-01-31T23:49:17.668Z,7.20
2023-01-31T23:51:45.014Z,5.93
2023-01-31T23:54:12.234Z,3.75
2023-01-31T23:56:39.722Z,4.90
2023-01-31T23:59:07.086Z,4.03
